sensor_id;sensor_type;location;lat;lon;timestamp;temperature;humidity
15959;DHT22;8078;47.822;9.402;2023-12-20T00:01:46;2.00;99.90
15959;DHT22;8078;47.822;9.402;2023-12-20T00:04:12;2.00;99.90
15959;DHT22;8078;47.822;9.402;2023-12-20T00:06:38;2.10;99.90
15959;DHT22;8078;47.822;9.402;2023-12-20T00:09:03;2.10;99.90
15959;DHT22;8078;47.822;9.402;2023-12-20T00:11:29;2.20;99.90
15959;DHT22;8078;47.822;9.402;2023-12-20T00:13:54;2.20;99.90
15959;DHT22;8078;47.822;9.402;2023-12-20T00:16:20;2.20;99.90
15959;DHT22;8078;47.822;9.402;2023-12-20T00:18:45;2.20;99.90
15959;DHT22;8078;47.822;9.402;2023-12-20T00:21:11;2.20;99.90
15959;DHT22;8078;47.822;9.402;2023-12-20T00:23:36;2.20;99.90
15959;DHT22;8078;47.822;9.402;2023-12-20T00:26:02;2.20;99.90
15959;DHT22;8078;47.822;9.402;2023-12-20T00:28:28;2.20;99.90
15959;DHT22;8078;47.822;9.402;2023-12-20T00:30:53;2.20;99.90
15959;DHT22;8078;47.822;9.402;2023-12-20T00:33:19;2.20;99.90
15959;DHT22;8078;47.822;9.402;2023-12-20T00:35:44;2.10;99.90
15959;DHT22;8078;47.822;9.402;2023-12-20T00:38:10;2.10;99.90
15959;DHT22;8078;47.822;9.402;2023-12-20T00:40:36;2.10;99.90
15959;DHT22;8078;47.822;9.402;2023-12-20T00:43:02;2.20;99.90
15959;DHT22;8078;47.822;9.402;2023-12-20T00:45:28;2.20;99.90
15959;DHT22;8078;47.822;9.402;2023-12-20T00:47:53;2.20;99.90
15959;DHT22;8078;47.822;9.402;2023-12-20T00:50:19;2.30;99.90
15959;DHT22;8078;47.822;9.402;2023-12-20T00:52:46;2.30;99.90
15959;DHT22;8078;47.822;9.402;2023-12-20T00:55:11;2.20;99.90
15959;DHT22;8078;47.822;9.402;2023-12-20T00:57:37;2.20;99.90
15959;DHT22;8078;47.822;9.402;2023-12-20T01:00:03;2.20;99.90
15959;DHT22;8078;47.822;9.402;2023-12-20T01:02:28;2.10;99.90
15959;DHT22;8078;47.822;9.402;2023-12-20T01:04:54;2.20;99.90
15959;DHT22;8078;47.822;9.402;2023-12-20T01:07:20;2.10;99.90
15959;DHT22;8078;47.822;9.402;2023-12-20T01:09:45;2.10;99.90
15959;DHT22;8078;47.822;9.402;2023-12-20T01:12:11;2.10;99.90
15959;DHT22;8078;47.822;9.402;2023-12-20T01:14:36;2.10;99.90
15959;DHT22;8078;47.822;9.402;2023-12-20T01:17:02;2.20;99.90
15959;DHT22;8078;47.822;9.402;2023-12-20T01:19:27;2.20;99.90
15959;DHT22;8078;47.822;9.402;2023-12-20T01:21:54;2.20;99.90
15959;DHT22;8078;47.822;9.402;2023-12-20T01:24:20;2.20;99.90
15959;DHT22;8078;47.822;9.402;2023-12-20T01:26:46;2.20;99.90
15959;DHT22;8078;47.822;9.402;2023-12-20T01:29:11;2.10;99.90
15959;DHT22;8078;47.822;9.402;2023-12-20T01:31:38;2.20;99.90
15959;DHT22;8078;47.822;9.402;2023-12-20T01:34:04;2.20;99.90
15959;DHT22;8078;47.822;9.402;2023-12-20T01:36:29;2.20;99.90
15959;DHT22;8078;47.822;9.402;2023-12-20T01:38:55;2.30;99.90
15959;DHT22;8078;47.822;9.402;2023-12-20T01:41:20;2.30;99.90
15959;DHT22;8078;47.822;9.402;2023-12-20T01:43:46;2.30;99.90
15959;DHT22;8078;47.822;9.402;2023-12-20T01:46:12;2.30;99.90
15959;DHT22;8078;47.822;9.402;2023-12-20T01:48:37;2.30;99.90
15959;DHT22;8078;47.822;9.402;2023-12-20T01:51:04;2.30;99.90
15959;DHT22;8078;47.822;9.402;2023-12-20T01:53:30;2.30;99.90
15959;DHT22;8078;47.822;9.402;2023-12-20T01:55:58;2.20;99.90
15959;DHT22;8078;47.822;9.402;2023-12-20T01:58:25;2.20;99.90
15959;DHT22;8078;47.822;9.402;2023-12-20T02:00:51;2.40;99.90
15959;DHT22;8078;47.822;9.402;2023-12-20T02:03:17;2.40;99.90
15959;DHT22;8078;47.822;9.402;2023-12-20T02:05:44;2.60;99.90
15959;DHT22;8078;47.822;9.402;2023-12-20T02:08:10;2.70;99.90
15959;DHT22;8078;47.822;9.402;2023-12-20T02:10:36;2.60;92.00
15959;DHT22;8078;47.822;9.402;2023-12-20T02:13:03;2.30;13.90
15959;DHT22;8078;47.822;9.402;2023-12-20T02:15:29;2.30;32.60
15959;DHT22;8078;47.822;9.402;2023-12-20T02:17:55;2.20;26.50
15959;DHT22;8078;47.822;9.402;2023-12-20T02:20:21;2.30;9.50
15959;DHT22;8078;47.822;9.402;2023-12-20T02:22:46;2.30;1.00
15959;DHT22;8078;47.822;9.402;2023-12-20T02:25:12;2.20;1.00
15959;DHT22;8078;47.822;9.402;2023-12-20T02:27:38;2.20;1.00
15959;DHT22;8078;47.822;9.402;2023-12-20T02:30:06;2.20;1.00
15959;DHT22;8078;47.822;9.402;2023-12-20T02:32:32;2.20;1.00
15959;DHT22;8078;47.822;9.402;2023-12-20T02:34:57;2.20;1.00
15959;DHT22;8078;47.822;9.402;2023-12-20T02:37:23;2.20;1.00
15959;DHT22;8078;47.822;9.402;2023-12-20T02:39:49;2.30;1.00
15959;DHT22;8078;47.822;9.402;2023-12-20T02:42:14;2.40;1.00
15959;DHT22;8078;47.822;9.402;2023-12-20T02:44:40;2.30;1.00
15959;DHT22;8078;47.822;9.402;2023-12-20T02:47:05;2.40;1.00
15959;DHT22;8078;47.822;9.402;2023-12-20T02:49:31;2.40;1.00
15959;DHT22;8078;47.822;9.402;2023-12-20T02:51:56;2.50;1.00
15959;DHT22;8078;47.822;9.402;2023-12-20T02:54:22;2.40;1.00
15959;DHT22;8078;47.822;9.402;2023-12-20T02:56:48;2.40;1.00
15959;DHT22;8078;47.822;9.402;2023-12-20T02:59:13;2.30;1.00
15959;DHT22;8078;47.822;9.402;2023-12-20T03:01:45;2.30;1.00
15959;DHT22;8078;47.822;9.402;2023-12-20T03:04:12;2.40;1.00
15959;DHT22;8078;47.822;9.402;2023-12-20T03:06:38;2.30;1.00
15959;DHT22;8078;47.822;9.402;2023-12-20T03:09:05;2.40;1.00
15959;DHT22;8078;47.822;9.402;2023-12-20T03:11:31;2.30;1.00
15959;DHT22;8078;47.822;9.402;2023-12-20T03:13:57;2.30;1.00
15959;DHT22;8078;47.822;9.402;2023-12-20T03:16:22;2.30;1.00
15959;DHT22;8078;47.822;9.402;2023-12-20T03:18:48;2.30;1.00
15959;DHT22;8078;47.822;9.402;2023-12-20T03:21:14;2.20;1.00
15959;DHT22;8078;47.822;9.402;2023-12-20T03:23:40;2.20;1.00
15959;DHT22;8078;47.822;9.402;2023-12-20T03:26:09;2.20;1.00
15959;DHT22;8078;47.822;9.402;2023-12-20T03:28:36;2.20;1.00
15959;DHT22;8078;47.822;9.402;2023-12-20T03:31:02;2.20;1.00
15959;DHT22;8078;47.822;9.402;2023-12-20T03:33:28;2.20;1.00
15959;DHT22;8078;47.822;9.402;2023-12-20T03:35:53;2.10;1.00
15959;DHT22;8078;47.822;9.402;2023-12-20T03:38:19;2.10;1.00
15959;DHT22;8078;47.822;9.402;2023-12-20T03:40:44;2.20;1.00
15959;DHT22;8078;47.822;9.402;2023-12-20T03:43:10;2.20;1.00
15959;DHT22;8078;47.822;9.402;2023-12-20T03:45:35;2.20;46.50
15959;DHT22;8078;47.822;9.402;2023-12-20T03:48:01;2.10;99.90
15959;DHT22;8078;47.822;9.402;2023-12-20T03:50:27;2.10;99.90
15959;DHT22;8078;47.822;9.402;2023-12-20T03:52:52;2.00;99.90
15959;DHT22;8078;47.822;9.402;2023-12-20T03:55:18;2.00;99.90
15959;DHT22;8078;47.822;9.402;2023-12-20T03:57:44;1.90;99.90
15959;DHT22;8078;47.822;9.402;2023-12-20T04:00:10;1.90;99.90
15959;DHT22;8078;47.822;9.402;2023-12-20T04:02:40;1.80;99.90
15959;DHT22;8078;47.822;9.402;2023-12-20T04:05:06;1.80;99.90
15959;DHT22;8078;47.822;9.402;2023-12-20T04:07:32;1.70;99.90
15959;DHT22;8078;47.822;9.402;2023-12-20T04:09:58;1.70;99.90
15959;DHT22;8078;47.822;9.402;2023-12-20T04:12:23;1.70;99.90
15959;DHT22;8078;47.822;9.402;2023-12-20T04:14:49;1.70;99.90
15959;DHT22;8078;47.822;9.402;2023-12-20T04:17:15;1.70;99.90
15959;DHT22;8078;47.822;9.402;2023-12-20T04:19:41;1.70;99.90
15959;DHT22;8078;47.822;9.402;2023-12-20T04:22:07;1.70;99.90
15959;DHT22;8078;47.822;9.402;2023-12-20T04:24:33;1.70;99.90
15959;DHT22;8078;47.822;9.402;2023-12-20T04:26:58;1.70;99.90
15959;DHT22;8078;47.822;9.402;2023-12-20T04:29:24;1.70;99.90
15959;DHT22;8078;47.822;9.402;2023-12-20T04:31:49;1.70;99.90
15959;DHT22;8078;47.822;9.402;2023-12-20T04:34:17;1.70;99.90
15959;DHT22;8078;47.822;9.402;2023-12-20T04:36:43;1.70;99.90
15959;DHT22;8078;47.822;9.402;2023-12-20T04:39:08;1.70;99.90
15959;DHT22;8078;47.822;9.402;2023-12-20T04:41:34;1.70;99.90
15959;DHT22;8078;47.822;9.402;2023-12-20T04:43:59;1.80;99.90
15959;DHT22;8078;47.822;9.402;2023-12-20T04:46:26;1.70;99.90
15959;DHT22;8078;47.822;9.402;2023-12-20T04:48:51;1.70;99.90
15959;DHT22;8078;47.822;9.402;2023-12-20T04:51:17;1.70;99.90
15959;DHT22;8078;47.822;9.402;2023-12-20T04:53:43;1.70;99.90
15959;DHT22;8078;47.822;9.402;2023-12-20T04:56:08;1.70;99.90
15959;DHT22;8078;47.822;9.402;2023-12-20T04:58:34;1.80;99.90
15959;DHT22;8078;47.822;9.402;2023-12-20T05:00:59;1.80;99.90
15959;DHT22;8078;47.822;9.402;2023-12-20T05:03:25;1.90;99.90
15959;DHT22;8078;47.822;9.402;2023-12-20T05:05:50;1.90;99.90
15959;DHT22;8078;47.822;9.402;2023-12-20T05:08:16;1.90;99.90
15959;DHT22;8078;47.822;9.402;2023-12-20T05:10:41;1.90;99.90
15959;DHT22;8078;47.822;9.402;2023-12-20T05:13:07;1.90;99.90
15959;DHT22;8078;47.822;9.402;2023-12-20T05:15:33;2.00;99.90
15959;DHT22;8078;47.822;9.402;2023-12-20T05:17:58;2.00;99.90
15959;DHT22;8078;47.822;9.402;2023-12-20T05:20:24;2.00;99.90
15959;DHT22;8078;47.822;9.402;2023-12-20T05:22:50;2.00;99.90
15959;DHT22;8078;47.822;9.402;2023-12-20T05:25:15;2.00;99.90
15959;DHT22;8078;47.822;9.402;2023-12-20T05:27:41;2.00;99.90
15959;DHT22;8078;47.822;9.402;2023-12-20T05:30:07;2.10;99.90
15959;DHT22;8078;47.822;9.402;2023-12-20T05:32:32;2.10;99.90
15959;DHT22;8078;47.822;9.402;2023-12-20T05:34:58;2.10;99.90
15959;DHT22;8078;47.822;9.402;2023-12-20T05:37:23;2.10;99.90
15959;DHT22;8078;47.822;9.402;2023-12-20T05:39:49;2.10;99.90
15959;DHT22;8078;47.822;9.402;2023-12-20T05:42:14;2.10;99.90
15959;DHT22;8078;47.822;9.402;2023-12-20T05:44:40;2.10;99.90
15959;DHT22;8078;47.822;9.402;2023-12-20T05:47:06;2.10;99.90
15959;DHT22;8078;47.822;9.402;2023-12-20T05:49:31;2.20;99.90
15959;DHT22;8078;47.822;9.402;2023-12-20T05:51:57;2.10;99.90
15959;DHT22;8078;47.822;9.402;2023-12-20T05:54:22;2.20;99.90
15959;DHT22;8078;47.822;9.402;2023-12-20T05:56:48;2.20;99.90
15959;DHT22;8078;47.822;9.402;2023-12-20T05:59:14;2.20;99.90
15959;DHT22;8078;47.822;9.402;2023-12-20T06:01:39;2.20;99.90
15959;DHT22;8078;47.822;9.402;2023-12-20T06:04:05;2.20;99.90
15959;DHT22;8078;47.822;9.402;2023-12-20T06:06:30;2.30;99.90
15959;DHT22;8078;47.822;9.402;2023-12-20T06:08:56;2.30;99.90
15959;DHT22;8078;47.822;9.402;2023-12-20T06:11:21;2.30;99.90
15959;DHT22;8078;47.822;9.402;2023-12-20T06:13:47;2.30;99.90
15959;DHT22;8078;47.822;9.402;2023-12-20T06:16:14;2.30;99.90
15959;DHT22;8078;47.822;9.402;2023-12-20T06:18:40;2.40;99.90
15959;DHT22;8078;47.822;9.402;2023-12-20T06:21:06;2.40;99.90
15959;DHT22;8078;47.822;9.402;2023-12-20T06:23:33;2.40;99.90
15959;DHT22;8078;47.822;9.402;2023-12-20T06:25:58;2.40;99.90
15959;DHT22;8078;47.822;9.402;2023-12-20T06:28:24;2.40;99.90
15959;DHT22;8078;47.822;9.402;2023-12-20T06:30:49;2.40;99.90
15959;DHT22;8078;47.822;9.402;2023-12-20T06:33:17;2.40;99.90
15959;DHT22;8078;47.822;9.402;2023-12-20T06:35:44;2.40;99.90
15959;DHT22;8078;47.822;9.402;2023-12-20T06:38:09;2.40;99.90
15959;DHT22;8078;47.822;9.402;2023-12-20T06:40:35;2.40;99.90
15959;DHT22;8078;47.822;9.402;2023-12-20T06:43:00;2.50;99.90
15959;DHT22;8078;47.822;9.402;2023-12-20T06:45:26;2.40;99.90
15959;DHT22;8078;47.822;9.402;2023-12-20T06:47:51;2.40;99.90
15959;DHT22;8078;47.822;9.402;2023-12-20T06:50:17;2.40;99.90
15959;DHT22;8078;47.822;9.402;2023-12-20T06:52:42;2.50;99.90
15959;DHT22;8078;47.822;9.402;2023-12-20T06:55:08;2.50;99.90
15959;DHT22;8078;47.822;9.402;2023-12-20T06:57:34;2.50;99.90
15959;DHT22;8078;47.822;9.402;2023-12-20T07:00:01;2.50;99.90
15959;DHT22;8078;47.822;9.402;2023-12-20T07:02:27;2.50;99.90
15959;DHT22;8078;47.822;9.402;2023-12-20T07:04:55;2.50;99.90
15959;DHT22;8078;47.822;9.402;2023-12-20T07:07:21;2.50;99.90
15959;DHT22;8078;47.822;9.402;2023-12-20T07:09:48;2.50;99.90
15959;DHT22;8078;47.822;9.402;2023-12-20T07:12:14;2.60;99.90
15959;DHT22;8078;47.822;9.402;2023-12-20T07:14:39;2.60;99.90
15959;DHT22;8078;47.822;9.402;2023-12-20T07:17:05;2.60;99.90
15959;DHT22;8078;47.822;9.402;2023-12-20T07:19:33;2.60;99.90
15959;DHT22;8078;47.822;9.402;2023-12-20T07:21:58;2.60;99.90
15959;DHT22;8078;47.822;9.402;2023-12-20T07:24:24;2.60;99.90
15959;DHT22;8078;47.822;9.402;2023-12-20T07:26:49;2.70;99.90
15959;DHT22;8078;47.822;9.402;2023-12-20T07:29:15;2.60;99.90
15959;DHT22;8078;47.822;9.402;2023-12-20T07:31:41;2.60;99.90
15959;DHT22;8078;47.822;9.402;2023-12-20T07:34:06;2.70;99.90
15959;DHT22;8078;47.822;9.402;2023-12-20T07:36:32;2.70;99.90
15959;DHT22;8078;47.822;9.402;2023-12-20T07:38:58;2.70;99.90
15959;DHT22;8078;47.822;9.402;2023-12-20T07:41:23;2.70;99.90
15959;DHT22;8078;47.822;9.402;2023-12-20T07:43:49;2.80;99.90
15959;DHT22;8078;47.822;9.402;2023-12-20T07:46:14;2.80;99.90
15959;DHT22;8078;47.822;9.402;2023-12-20T07:48:40;2.80;99.90
15959;DHT22;8078;47.822;9.402;2023-12-20T07:51:06;2.80;99.90
15959;DHT22;8078;47.822;9.402;2023-12-20T07:53:33;2.80;99.90
15959;DHT22;8078;47.822;9.402;2023-12-20T07:55:59;2.80;99.90
15959;DHT22;8078;47.822;9.402;2023-12-20T07:58:25;2.90;99.90
15959;DHT22;8078;47.822;9.402;2023-12-20T08:00:50;2.80;99.90
15959;DHT22;8078;47.822;9.402;2023-12-20T08:03:16;2.80;99.90
15959;DHT22;8078;47.822;9.402;2023-12-20T08:05:42;2.90;99.90
15959;DHT22;8078;47.822;9.402;2023-12-20T08:08:07;2.90;99.90
15959;DHT22;8078;47.822;9.402;2023-12-20T08:10:33;2.90;99.90
15959;DHT22;8078;47.822;9.402;2023-12-20T08:12:58;2.90;99.90
15959;DHT22;8078;47.822;9.402;2023-12-20T08:15:24;2.90;99.90
15959;DHT22;8078;47.822;9.402;2023-12-20T08:17:50;2.90;99.90
15959;DHT22;8078;47.822;9.402;2023-12-20T08:20:18;2.90;99.90
15959;DHT22;8078;47.822;9.402;2023-12-20T08:22:44;2.90;99.90
15959;DHT22;8078;47.822;9.402;2023-12-20T08:25:09;2.90;99.90
15959;DHT22;8078;47.822;9.402;2023-12-20T08:27:41;2.90;99.90
15959;DHT22;8078;47.822;9.402;2023-12-20T08:30:08;2.90;99.90
15959;DHT22;8078;47.822;9.402;2023-12-20T08:32:35;2.90;99.90
15959;DHT22;8078;47.822;9.402;2023-12-20T08:35:00;2.90;99.90
15959;DHT22;8078;47.822;9.402;2023-12-20T08:37:26;3.00;99.90
15959;DHT22;8078;47.822;9.402;2023-12-20T08:39:51;3.00;99.90
15959;DHT22;8078;47.822;9.402;2023-12-20T08:42:17;3.00;99.90
15959;DHT22;8078;47.822;9.402;2023-12-20T08:44:42;3.00;99.90
15959;DHT22;8078;47.822;9.402;2023-12-20T08:47:08;3.00;99.90
15959;DHT22;8078;47.822;9.402;2023-12-20T08:49:33;3.00;99.90
15959;DHT22;8078;47.822;9.402;2023-12-20T08:51:59;3.00;99.90
15959;DHT22;8078;47.822;9.402;2023-12-20T08:54:25;3.00;99.90
15959;DHT22;8078;47.822;9.402;2023-12-20T08:56:50;3.00;99.90
15959;DHT22;8078;47.822;9.402;2023-12-20T08:59:16;3.00;99.90
15959;DHT22;8078;47.822;9.402;2023-12-20T09:01:41;3.00;99.90
15959;DHT22;8078;47.822;9.402;2023-12-20T09:04:07;3.00;99.90
15959;DHT22;8078;47.822;9.402;2023-12-20T09:06:32;3.10;99.90
15959;DHT22;8078;47.822;9.402;2023-12-20T09:08:58;3.10;99.90
15959;DHT22;8078;47.822;9.402;2023-12-20T09:11:24;3.10;99.90
15959;DHT22;8078;47.822;9.402;2023-12-20T09:13:49;3.10;99.90
15959;DHT22;8078;47.822;9.402;2023-12-20T09:16:15;3.10;99.90
15959;DHT22;8078;47.822;9.402;2023-12-20T09:18:41;3.00;99.90
15959;DHT22;8078;47.822;9.402;2023-12-20T09:21:07;3.10;99.90
15959;DHT22;8078;47.822;9.402;2023-12-20T09:23:32;3.00;99.90
15959;DHT22;8078;47.822;9.402;2023-12-20T09:25:58;3.00;99.90
15959;DHT22;8078;47.822;9.402;2023-12-20T09:28:23;3.00;99.90
15959;DHT22;8078;47.822;9.402;2023-12-20T09:30:49;3.10;99.90
15959;DHT22;8078;47.822;9.402;2023-12-20T09:33:14;3.10;99.90
15959;DHT22;8078;47.822;9.402;2023-12-20T09:35:41;3.10;99.90
15959;DHT22;8078;47.822;9.402;2023-12-20T09:38:07;3.10;99.90
15959;DHT22;8078;47.822;9.402;2023-12-20T09:40:34;3.10;99.90
15959;DHT22;8078;47.822;9.402;2023-12-20T09:43:04;3.10;99.90
15959;DHT22;8078;47.822;9.402;2023-12-20T09:45:34;3.10;99.90
15959;DHT22;8078;47.822;9.402;2023-12-20T09:48:00;3.10;99.90
15959;DHT22;8078;47.822;9.402;2023-12-20T09:50:26;3.10;99.90
15959;DHT22;8078;47.822;9.402;2023-12-20T09:52:53;3.10;99.90
15959;DHT22;8078;47.822;9.402;2023-12-20T09:55:21;3.10;99.90
15959;DHT22;8078;47.822;9.402;2023-12-20T09:57:47;3.20;99.90
15959;DHT22;8078;47.822;9.402;2023-12-20T10:00:14;3.20;99.90
15959;DHT22;8078;47.822;9.402;2023-12-20T10:02:47;3.10;99.90
15959;DHT22;8078;47.822;9.402;2023-12-20T10:05:16;3.20;99.90
15959;DHT22;8078;47.822;9.402;2023-12-20T10:07:44;3.10;99.90
15959;DHT22;8078;47.822;9.402;2023-12-20T10:10:10;3.20;99.90
15959;DHT22;8078;47.822;9.402;2023-12-20T10:12:37;3.20;99.90
15959;DHT22;8078;47.822;9.402;2023-12-20T10:15:04;3.20;99.90
15959;DHT22;8078;47.822;9.402;2023-12-20T10:17:30;3.10;99.90
15959;DHT22;8078;47.822;9.402;2023-12-20T10:19:55;3.10;99.90
15959;DHT22;8078;47.822;9.402;2023-12-20T10:22:21;3.10;99.90
15959;DHT22;8078;47.822;9.402;2023-12-20T10:24:47;3.20;99.90
15959;DHT22;8078;47.822;9.402;2023-12-20T10:27:12;3.20;99.90
15959;DHT22;8078;47.822;9.402;2023-12-20T10:29:38;3.20;99.90
15959;DHT22;8078;47.822;9.402;2023-12-20T10:32:23;3.20;99.90
15959;DHT22;8078;47.822;9.402;2023-12-20T10:34:50;3.20;99.90
15959;DHT22;8078;47.822;9.402;2023-12-20T10:37:15;3.10;99.90
15959;DHT22;8078;47.822;9.402;2023-12-20T10:39:42;3.20;99.90
15959;DHT22;8078;47.822;9.402;2023-12-20T10:42:12;3.20;99.90
15959;DHT22;8078;47.822;9.402;2023-12-20T10:44:38;3.30;99.90
15959;DHT22;8078;47.822;9.402;2023-12-20T10:47:05;3.30;99.90
15959;DHT22;8078;47.822;9.402;2023-12-20T10:49:34;3.20;99.90
15959;DHT22;8078;47.822;9.402;2023-12-20T10:52:02;3.20;99.90
15959;DHT22;8078;47.822;9.402;2023-12-20T10:54:29;3.20;99.90
15959;DHT22;8078;47.822;9.402;2023-12-20T10:56:55;3.10;99.90
15959;DHT22;8078;47.822;9.402;2023-12-20T10:59:23;3.30;99.90
15959;DHT22;8078;47.822;9.402;2023-12-20T11:01:50;3.20;99.90
15959;DHT22;8078;47.822;9.402;2023-12-20T11:04:22;3.20;99.90
15959;DHT22;8078;47.822;9.402;2023-12-20T11:06:54;3.10;99.90
15959;DHT22;8078;47.822;9.402;2023-12-20T11:09:26;3.30;99.90
15959;DHT22;8078;47.822;9.402;2023-12-20T11:12:13;3.30;99.90
15959;DHT22;8078;47.822;9.402;2023-12-20T11:17:10;3.40;99.90
15959;DHT22;8078;47.822;9.402;2023-12-20T11:22:29;3.30;99.90
15959;DHT22;8078;47.822;9.402;2023-12-20T11:25:06;3.30;99.90
15959;DHT22;8078;47.822;9.402;2023-12-20T11:27:33;3.20;99.90
15959;DHT22;8078;47.822;9.402;2023-12-20T11:29:59;3.20;99.90
15959;DHT22;8078;47.822;9.402;2023-12-20T11:37:35;3.30;99.90
15959;DHT22;8078;47.822;9.402;2023-12-20T11:40:08;3.30;99.90
15959;DHT22;8078;47.822;9.402;2023-12-20T11:42:44;3.30;99.90
15959;DHT22;8078;47.822;9.402;2023-12-20T11:45:18;3.40;99.90
15959;DHT22;8078;47.822;9.402;2023-12-20T11:47:48;3.30;99.90
15959;DHT22;8078;47.822;9.402;2023-12-20T11:50:17;3.50;99.90
15959;DHT22;8078;47.822;9.402;2023-12-20T11:52:43;3.40;99.90
15959;DHT22;8078;47.822;9.402;2023-12-20T11:55:09;3.30;99.90
15959;DHT22;8078;47.822;9.402;2023-12-20T11:57:36;3.30;99.90
15959;DHT22;8078;47.822;9.402;2023-12-20T12:00:02;3.40;99.90
15959;DHT22;8078;47.822;9.402;2023-12-20T12:02:28;3.50;99.90
15959;DHT22;8078;47.822;9.402;2023-12-20T12:04:53;3.50;99.90
15959;DHT22;8078;47.822;9.402;2023-12-20T12:07:19;3.50;99.90
15959;DHT22;8078;47.822;9.402;2023-12-20T12:09:45;3.50;99.90
15959;DHT22;8078;47.822;9.402;2023-12-20T12:12:12;3.60;99.90
15959;DHT22;8078;47.822;9.402;2023-12-20T12:14:38;3.70;99.90
15959;DHT22;8078;47.822;9.402;2023-12-20T12:17:12;3.60;99.90
15959;DHT22;8078;47.822;9.402;2023-12-20T12:19:39;3.50;99.90
15959;DHT22;8078;47.822;9.402;2023-12-20T12:24:36;3.50;99.90
15959;DHT22;8078;47.822;9.402;2023-12-20T12:27:03;3.50;99.90
15959;DHT22;8078;47.822;9.402;2023-12-20T12:29:29;3.50;99.90
15959;DHT22;8078;47.822;9.402;2023-12-20T12:31:55;3.50;99.90
15959;DHT22;8078;47.822;9.402;2023-12-20T12:34:20;3.60;99.90
15959;DHT22;8078;47.822;9.402;2023-12-20T12:36:46;3.60;99.90
15959;DHT22;8078;47.822;9.402;2023-12-20T12:39:16;3.50;99.90
15959;DHT22;8078;47.822;9.402;2023-12-20T12:41:42;3.60;99.90
15959;DHT22;8078;47.822;9.402;2023-12-20T12:44:08;3.40;99.90
15959;DHT22;8078;47.822;9.402;2023-12-20T12:46:34;3.40;99.90
15959;DHT22;8078;47.822;9.402;2023-12-20T12:48:59;3.50;99.90
15959;DHT22;8078;47.822;9.402;2023-12-20T12:51:25;3.40;99.90
15959;DHT22;8078;47.822;9.402;2023-12-20T12:53:51;3.20;99.90
15959;DHT22;8078;47.822;9.402;2023-12-20T12:56:17;3.10;99.90
15959;DHT22;8078;47.822;9.402;2023-12-20T12:58:42;3.10;99.90
15959;DHT22;8078;47.822;9.402;2023-12-20T13:01:08;3.00;99.90
15959;DHT22;8078;47.822;9.402;2023-12-20T13:03:35;3.00;99.90
15959;DHT22;8078;47.822;9.402;2023-12-20T13:06:01;3.00;99.90
15959;DHT22;8078;47.822;9.402;2023-12-20T13:08:27;2.90;99.90
15959;DHT22;8078;47.822;9.402;2023-12-20T13:10:52;2.90;99.90
15959;DHT22;8078;47.822;9.402;2023-12-20T13:13:18;2.90;99.90
15959;DHT22;8078;47.822;9.402;2023-12-20T13:15:43;2.90;99.90
15959;DHT22;8078;47.822;9.402;2023-12-20T13:18:17;2.90;99.90
15959;DHT22;8078;47.822;9.402;2023-12-20T13:20:44;2.90;99.90
15959;DHT22;8078;47.822;9.402;2023-12-20T13:23:09;3.00;99.90
15959;DHT22;8078;47.822;9.402;2023-12-20T13:25:35;3.00;99.90
15959;DHT22;8078;47.822;9.402;2023-12-20T13:28:00;3.20;99.90
15959;DHT22;8078;47.822;9.402;2023-12-20T13:30:26;3.20;99.90
15959;DHT22;8078;47.822;9.402;2023-12-20T13:32:52;3.10;99.90
15959;DHT22;8078;47.822;9.402;2023-12-20T13:35:17;3.10;99.90
15959;DHT22;8078;47.822;9.402;2023-12-20T13:37:43;3.00;99.90
15959;DHT22;8078;47.822;9.402;2023-12-20T13:40:10;3.10;99.90
15959;DHT22;8078;47.822;9.402;2023-12-20T13:42:36;3.00;99.90
15959;DHT22;8078;47.822;9.402;2023-12-20T13:45:01;3.00;99.90
15959;DHT22;8078;47.822;9.402;2023-12-20T13:47:27;2.90;99.90
15959;DHT22;8078;47.822;9.402;2023-12-20T13:49:54;2.80;99.90
15959;DHT22;8078;47.822;9.402;2023-12-20T13:52:21;2.70;99.90
15959;DHT22;8078;47.822;9.402;2023-12-20T13:54:46;2.60;99.90
15959;DHT22;8078;47.822;9.402;2023-12-20T13:57:13;2.60;83.90
15959;DHT22;8078;47.822;9.402;2023-12-20T13:59:38;2.50;99.90
15959;DHT22;8078;47.822;9.402;2023-12-20T14:02:04;2.60;93.80
15959;DHT22;8078;47.822;9.402;2023-12-20T14:04:30;2.60;95.70
15959;DHT22;8078;47.822;9.402;2023-12-20T14:06:56;2.60;49.10
15959;DHT22;8078;47.822;9.402;2023-12-20T14:09:22;2.60;41.30
15959;DHT22;8078;47.822;9.402;2023-12-20T14:11:48;2.80;6.40
15959;DHT22;8078;47.822;9.402;2023-12-20T14:14:13;2.90;1.00
15959;DHT22;8078;47.822;9.402;2023-12-20T14:16:39;3.10;1.00
15959;DHT22;8078;47.822;9.402;2023-12-20T14:19:04;3.10;1.00
15959;DHT22;8078;47.822;9.402;2023-12-20T14:21:33;3.10;1.00
15959;DHT22;8078;47.822;9.402;2023-12-20T14:23:58;3.30;1.00
15959;DHT22;8078;47.822;9.402;2023-12-20T14:26:24;3.50;1.00
15959;DHT22;8078;47.822;9.402;2023-12-20T14:28:50;3.70;1.00
15959;DHT22;8078;47.822;9.402;2023-12-20T14:31:15;3.90;1.00
15959;DHT22;8078;47.822;9.402;2023-12-20T14:33:41;4.00;1.00
15959;DHT22;8078;47.822;9.402;2023-12-20T14:36:08;4.00;1.00
15959;DHT22;8078;47.822;9.402;2023-12-20T14:38:34;4.10;1.00
15959;DHT22;8078;47.822;9.402;2023-12-20T14:40:59;3.90;1.00
15959;DHT22;8078;47.822;9.402;2023-12-20T14:43:26;4.10;1.00
15959;DHT22;8078;47.822;9.402;2023-12-20T14:45:54;4.00;1.00
15959;DHT22;8078;47.822;9.402;2023-12-20T14:48:20;4.10;1.00
15959;DHT22;8078;47.822;9.402;2023-12-20T14:50:46;4.40;1.00
15959;DHT22;8078;47.822;9.402;2023-12-20T14:53:14;3.90;1.00
15959;DHT22;8078;47.822;9.402;2023-12-20T14:55:42;4.00;1.00
15959;DHT22;8078;47.822;9.402;2023-12-20T14:58:07;3.90;1.00
15959;DHT22;8078;47.822;9.402;2023-12-20T15:00:33;3.60;1.00
15959;DHT22;8078;47.822;9.402;2023-12-20T15:02:59;3.20;1.00
15959;DHT22;8078;47.822;9.402;2023-12-20T15:05:24;2.90;1.00
15959;DHT22;8078;47.822;9.402;2023-12-20T15:07:50;2.70;1.00
15959;DHT22;8078;47.822;9.402;2023-12-20T15:10:16;2.60;1.00
15959;DHT22;8078;47.822;9.402;2023-12-20T15:12:42;2.50;1.00
15959;DHT22;8078;47.822;9.402;2023-12-20T15:15:08;2.30;1.00
15959;DHT22;8078;47.822;9.402;2023-12-20T15:17:35;2.10;1.00
15959;DHT22;8078;47.822;9.402;2023-12-20T15:20:02;2.00;1.00
15959;DHT22;8078;47.822;9.402;2023-12-20T15:22:28;2.00;1.00
15959;DHT22;8078;47.822;9.402;2023-12-20T15:24:53;2.10;1.00
15959;DHT22;8078;47.822;9.402;2023-12-20T15:27:20;2.00;1.00
15959;DHT22;8078;47.822;9.402;2023-12-20T15:29:46;2.00;1.00
15959;DHT22;8078;47.822;9.402;2023-12-20T15:32:11;2.00;1.00
15959;DHT22;8078;47.822;9.402;2023-12-20T15:34:37;2.00;1.00
15959;DHT22;8078;47.822;9.402;2023-12-20T15:37:03;1.90;1.00
15959;DHT22;8078;47.822;9.402;2023-12-20T15:39:29;2.00;1.00
15959;DHT22;8078;47.822;9.402;2023-12-20T15:41:55;2.10;1.00
15959;DHT22;8078;47.822;9.402;2023-12-20T15:44:20;2.10;1.00
15959;DHT22;8078;47.822;9.402;2023-12-20T15:46:46;2.10;1.00
15959;DHT22;8078;47.822;9.402;2023-12-20T15:49:11;2.10;1.00
15959;DHT22;8078;47.822;9.402;2023-12-20T15:51:37;2.10;1.00
15959;DHT22;8078;47.822;9.402;2023-12-20T15:54:03;2.10;1.00
15959;DHT22;8078;47.822;9.402;2023-12-20T15:56:32;2.00;1.00
15959;DHT22;8078;47.822;9.402;2023-12-20T15:58:58;2.10;1.00
15959;DHT22;8078;47.822;9.402;2023-12-20T16:01:24;2.00;1.00
15959;DHT22;8078;47.822;9.402;2023-12-20T16:03:50;2.00;1.00
15959;DHT22;8078;47.822;9.402;2023-12-20T16:06:16;2.00;1.00
15959;DHT22;8078;47.822;9.402;2023-12-20T16:08:42;1.90;1.00
15959;DHT22;8078;47.822;9.402;2023-12-20T16:11:08;1.80;1.00